Time;durP1;ratioP1;P1;durP2;ratioP2;P2;SDS_P1;SDS_P2;PMS_P1;PMS_P2;Temp;Humidity;BMP_temperature;BMP_pressure;BME280_temperature;BME280_humidity;BME280_pressure;Samples;Min_cycle;Max_cycle;Signal;HPM_P1;HPM_P2
2021/12/29 00:00:47;;;;;;;3.05;1.00;;;8.20;92.00;;;;;;5008711;28;20088;-71
2021/12/29 00:03:15;;;;;;;5.25;2.17;;;8.20;92.20;;;;;;5012792;28;20093;-71
2021/12/29 00:05:45;;;;;;;9.90;3.65;;;8.20;92.20;;;;;;4955800;28;20046;-72
2021/12/29 00:08:30;;;;;;;7.00;2.44;;;8.20;92.20;;;;;;2239982;28;10151149;-71
2021/12/29 00:11:11;;;;;;;8.82;3.67;;;8.20;92.20;;;;;;3600923;28;10001525;-70
2021/12/29 00:13:45;;;;;;;16.98;8.60;;;8.20;92.20;;;;;;4973457;28;20055;-70
2021/12/29 00:16:18;;;;;;;22.75;9.52;;;8.20;92.30;;;;;;4972343;28;20098;-70
2021/12/29 00:18:51;;;;;;;23.10;9.50;;;8.20;92.30;;;;;;4972931;28;20101;-71
2021/12/29 00:21:18;;;;;;;18.38;8.60;;;8.20;92.30;;;;;;4973874;28;20058;-70
2021/12/29 00:23:46;;;;;;;14.88;6.65;;;8.30;92.30;;;;;;4972552;28;20075;-71
2021/12/29 00:26:14;;;;;;;13.02;4.93;;;8.30;92.30;;;;;;4973818;28;20133;-71
2021/12/29 00:28:41;;;;;;;9.90;4.32;;;8.30;92.30;;;;;;4972329;28;20042;-70
2021/12/29 00:31:08;;;;;;;9.25;4.43;;;8.30;92.40;;;;;;4973090;28;20673;-71
2021/12/29 00:33:54;;;;;;;9.70;4.38;;;8.30;92.30;;;;;;4971025;28;20520;-71
2021/12/29 00:36:41;;;;;;;7.97;3.28;;;8.30;92.20;;;;;;4970595;28;20058;-70
2021/12/29 00:39:35;;;;;;;10.30;3.33;;;8.30;92.20;;;;;;4971434;28;20055;-71
2021/12/29 00:42:21;;;;;;;6.63;2.72;;;8.40;92.40;;;;;;4971686;28;20054;-70
2021/12/29 00:45:08;;;;;;;4.30;1.40;;;8.40;92.40;;;;;;4970848;28;20057;-71
2021/12/29 00:47:36;;;;;;;5.88;1.55;;;8.40;92.40;;;;;;4972230;28;20375;-71
2021/12/29 00:50:06;;;;;;;2.10;0.73;;;8.40;92.40;;;;;;4971063;28;20464;-70
2021/12/29 00:52:33;;;;;;;2.30;0.70;;;8.40;92.40;;;;;;4971559;28;20438;-71
2021/12/29 00:55:02;;;;;;;3.50;0.73;;;8.40;92.50;;;;;;4970148;28;20149;-71
2021/12/29 00:57:29;;;;;;;1.08;0.40;;;8.40;92.60;;;;;;4971289;28;20492;-71
2021/12/29 00:59:56;;;;;;;1.05;0.40;;;8.50;92.40;;;;;;4970176;28;20122;-70
2021/12/29 01:02:23;;;;;;;1.95;0.32;;;8.50;92.40;;;;;;4968111;28;20378;-71
2021/12/29 01:04:51;;;;;;;1.88;0.55;;;8.50;92.50;;;;;;4970018;28;20051;-71
2021/12/29 01:07:18;;;;;;;0.75;0.22;;;8.50;92.40;;;;;;4971002;28;20051;-71
2021/12/29 01:09:45;;;;;;;0.85;0.45;;;8.50;92.50;;;;;;4985992;28;20061;-71
2021/12/29 01:12:15;;;;;;;2.95;0.93;;;8.50;92.60;;;;;;5010047;28;20050;-70
2021/12/29 01:14:51;;;;;;;1.02;0.52;;;8.50;92.50;;;;;;5010132;28;20095;-70
2021/12/29 01:17:18;;;;;;;1.00;0.50;;;8.50;92.40;;;;;;5010754;28;20038;-70
2021/12/29 01:19:47;;;;;;;1.17;0.52;;;8.50;92.50;;;;;;5027101;28;20396;-71
2021/12/29 01:22:15;;;;;;;4.13;0.95;;;8.50;92.60;;;;;;5009547;28;20476;-70
2021/12/29 01:24:45;;;;;;;1.42;0.50;;;8.50;92.60;;;;;;5011128;28;20053;-72
2021/12/29 01:27:14;;;;;;;;;;;8.50;92.70;;;;;;5011403;28;20041;-71
2021/12/29 01:29:41;;;;;;;1.77;0.52;;;8.60;92.70;;;;;;5011575;28;19925;-70
2021/12/29 01:32:08;;;;;;;1.08;0.30;;;8.60;92.70;;;;;;5011210;28;20140;-70
2021/12/29 01:34:36;;;;;;;2.60;0.63;;;8.50;92.50;;;;;;5011438;28;20100;-71
2021/12/29 01:37:04;;;;;;;1.20;0.45;;;8.50;92.60;;;;;;5010222;28;20034;-70
2021/12/29 01:39:31;;;;;;;0.47;0.25;;;8.50;92.60;;;;;;5010936;28;20064;-71
2021/12/29 01:41:59;;;;;;;4.25;0.75;;;8.60;92.70;;;;;;5011324;28;20046;-70
2021/12/29 01:44:29;;;;;;;1.55;0.50;;;8.60;92.70;;;;;;5009967;28;20068;-70
2021/12/29 01:46:58;;;;;;;1.08;0.50;;;8.60;92.70;;;;;;5026505;28;20400;-70
2021/12/29 01:49:25;;;;;;;2.27;0.50;;;8.60;92.80;;;;;;5010921;28;20077;-71
2021/12/29 01:52:02;;;;;;;0.90;0.50;;;8.60;92.70;;;;;;5008920;28;20132;-71
2021/12/29 01:54:34;;;;;;;1.10;0.40;;;8.60;92.60;;;;;;5011036;28;20049;-71
2021/12/29 01:57:02;;;;;;;0.98;0.40;;;8.60;92.70;;;;;;5010807;28;20139;-70
2021/12/29 01:59:36;;;;;;;0.82;0.30;;;8.60;92.60;;;;;;5024566;28;20154;-70
2021/12/29 02:02:04;;;;;;;1.10;0.28;;;8.60;92.60;;;;;;5007696;28;20483;-71
2021/12/29 02:04:32;;;;;;;0.95;0.35;;;8.60;92.50;;;;;;5009474;28;20103;-70
2021/12/29 02:06:59;;;;;;;1.70;0.63;;;8.60;92.50;;;;;;5010390;28;20038;-71
2021/12/29 02:09:26;;;;;;;1.90;0.30;;;8.60;92.40;;;;;;5006763;28;20066;-70
2021/12/29 02:11:54;;;;;;;0.75;0.30;;;8.60;92.60;;;;;;5009816;28;20048;-72
2021/12/29 02:14:20;;;;;;;1.10;0.40;;;8.60;92.60;;;;;;5008307;28;20530;-70
2021/12/29 02:16:49;;;;;;;0.28;0.22;;;8.60;92.40;;;;;;5007834;28;20045;-71
2021/12/29 02:19:16;;;;;;;0.98;0.20;;;8.60;92.50;;;;;;5008282;28;20056;-72
2021/12/29 02:21:54;;;;;;;1.60;0.40;;;8.60;92.50;;;;;;5007970;28;20041;-71
2021/12/29 02:24:33;;;;;;;1.48;0.30;;;8.60;92.40;;;;;;5022524;28;20045;-71
2021/12/29 02:27:00;;;;;;;0.47;0.20;;;8.60;92.50;;;;;;5007283;28;20047;-72
2021/12/29 02:29:30;;;;;;;0.47;0.20;;;8.60;92.60;;;;;;5008189;28;20081;-71
2021/12/29 02:31:57;;;;;;;0.45;0.30;;;8.60;92.60;;;;;;5007226;28;20419;-71
2021/12/29 02:34:24;;;;;;;0.65;0.45;;;8.70;92.60;;;;;;5008155;28;20128;-72
2021/12/29 02:36:53;;;;;;;0.70;0.30;;;8.70;92.50;;;;;;5008700;28;20054;-73
2021/12/29 02:39:23;;;;;;;1.17;0.38;;;8.70;92.60;;;;;;5006798;28;20053;-72
2021/12/29 02:41:53;;;;;;;0.57;0.22;;;8.60;92.60;;;;;;5007987;28;20038;-71
2021/12/29 02:44:25;;;;;;;2.28;0.55;;;8.70;92.70;;;;;;5009063;28;20054;-71
2021/12/29 02:46:53;;;;;;;2.53;0.30;;;8.70;92.60;;;;;;5008561;28;20137;-72
2021/12/29 02:49:20;;;;;;;0.35;0.30;;;8.70;92.70;;;;;;5008369;28;20046;-71
2021/12/29 02:51:48;;;;;;;2.83;0.38;;;8.70;92.70;;;;;;5008516;28;20050;-72
2021/12/29 02:54:17;;;;;;;0.30;0.20;;;8.70;92.60;;;;;;5010791;28;20053;-69
2021/12/29 02:56:47;;;;;;;1.55;0.30;;;8.70;92.60;;;;;;5010335;28;20046;-73
2021/12/29 02:59:14;;;;;;;1.20;0.40;;;8.70;92.70;;;;;;5009108;28;20052;-70
2021/12/29 03:01:41;;;;;;;1.20;0.40;;;8.60;92.80;;;;;;5008672;28;20049;-71
2021/12/29 03:04:08;;;;;;;1.50;0.40;;;8.70;92.80;;;;;;5010729;28;20164;-69
2021/12/29 03:06:35;;;;;;;1.15;0.60;;;8.70;92.60;;;;;;5010374;28;20045;-70
2021/12/29 03:09:05;;;;;;;0.70;0.40;;;8.60;92.70;;;;;;5010688;28;20053;-71
2021/12/29 03:11:33;;;;;;;1.05;0.50;;;8.70;92.70;;;;;;5013167;28;20049;-70
2021/12/29 03:14:00;;;;;;;1.27;0.32;;;8.70;92.70;;;;;;5013399;28;20046;-71
2021/12/29 03:16:28;;;;;;;0.35;0.30;;;8.70;92.70;;;;;;5013725;28;20046;-71
2021/12/29 03:18:55;;;;;;;0.60;0.30;;;8.70;92.50;;;;;;5013499;28;20049;-71
2021/12/29 03:21:22;;;;;;;0.50;0.30;;;8.70;92.60;;;;;;5012227;28;20042;-71
2021/12/29 03:23:49;;;;;;;0.60;0.30;;;8.70;92.80;;;;;;5012345;28;20052;-70
2021/12/29 03:26:16;;;;;;;0.70;0.20;;;8.70;92.60;;;;;;5013304;28;20042;-71
2021/12/29 03:28:45;;;;;;;1.80;0.65;;;8.70;92.50;;;;;;5012979;28;20526;-71
2021/12/29 03:31:14;;;;;;;1.35;0.63;;;8.70;92.50;;;;;;5012821;28;20042;-71
2021/12/29 03:33:42;;;;;;;0.52;0.30;;;8.70;92.70;;;;;;5012386;28;20093;-71
2021/12/29 03:36:11;;;;;;;1.27;0.20;;;8.70;92.80;;;;;;5028559;28;20056;-72
2021/12/29 03:38:39;;;;;;;0.65;0.25;;;8.70;92.70;;;;;;5012919;28;20479;-70
2021/12/29 03:41:09;;;;;;;1.48;0.38;;;8.70;92.80;;;;;;5027901;28;20550;-71
2021/12/29 03:43:36;;;;;;;0.43;0.28;;;8.70;92.70;;;;;;5013405;28;20050;-70
2021/12/29 03:46:06;;;;;;;1.27;0.47;;;8.70;92.70;;;;;;5014165;28;20077;-70
2021/12/29 03:48:36;;;;;;;1.00;0.30;;;8.70;92.60;;;;;;5012142;28;20054;-71
2021/12/29 03:51:04;;;;;;;0.88;0.50;;;8.70;92.80;;;;;;5013953;28;20065;-70
2021/12/29 03:53:31;;;;;;;0.45;0.20;;;8.70;92.80;;;;;;5011002;28;20041;-70
2021/12/29 03:55:58;;;;;;;0.73;0.30;;;8.70;92.90;;;;;;5010877;28;20054;-70
2021/12/29 03:58:27;;;;;;;0.30;0.20;;;8.70;92.90;;;;;;5011034;28;20050;-70
2021/12/29 04:00:57;;;;;;;0.35;0.30;;;8.70;92.70;;;;;;5007384;28;20402;-72
2021/12/29 04:03:25;;;;;;;0.55;0.22;;;8.70;92.80;;;;;;5010432;28;20153;-72
2021/12/29 04:05:52;;;;;;;0.70;0.30;;;8.70;92.70;;;;;;5009917;28;20128;-71
2021/12/29 04:08:20;;;;;;;1.35;0.57;;;8.80;92.70;;;;;;5010619;28;20041;-71
2021/12/29 04:10:47;;;;;;;0.90;0.30;;;8.80;92.60;;;;;;5010363;28;20057;-71
2021/12/29 04:13:14;;;;;;;2.00;0.30;;;8.70;92.60;;;;;;5010671;28;20068;-70
2021/12/29 04:15:41;;;;;;;1.13;0.32;;;8.70;92.80;;;;;;5004452;28;20040;-71
2021/12/29 04:18:15;;;;;;;0.50;0.40;;;8.70;92.90;;;;;;5010562;28;20046;-72
2021/12/29 04:20:57;;;;;;;1.95;0.30;;;8.70;92.80;;;;;;5009718;28;20219;-71
2021/12/29 04:23:27;;;;;;;0.30;0.20;;;8.70;92.80;;;;;;5007636;28;20128;-72
2021/12/29 04:25:55;;;;;;;0.60;0.20;;;8.70;92.80;;;;;;5010139;28;20135;-72
2021/12/29 04:28:25;;;;;;;1.20;0.45;;;8.70;92.80;;;;;;5009991;28;20054;-70
2021/12/29 04:30:55;;;;;;;1.63;0.63;;;8.70;92.80;;;;;;5009794;28;20054;-71
2021/12/29 04:33:23;;;;;;;2.45;0.57;;;8.80;92.80;;;;;;5011013;28;20522;-71
2021/12/29 04:35:52;;;;;;;0.20;0.10;;;8.80;92.80;;;;;;5010471;28;20483;-70
2021/12/29 04:38:21;;;;;;;1.05;0.32;;;8.70;92.80;;;;;;5011132;28;20049;-71
2021/12/29 04:40:49;;;;;;;2.47;0.28;;;8.80;92.80;;;;;;5011294;28;20049;-71
2021/12/29 04:43:16;;;;;;;0.15;0.13;;;8.80;92.80;;;;;;5012442;28;20096;-71
2021/12/29 04:45:44;;;;;;;1.20;0.40;;;8.80;92.80;;;;;;5011469;28;20034;-71
2021/12/29 04:48:13;;;;;;;0.65;0.22;;;8.80;92.80;;;;;;5011570;28;20042;-71
2021/12/29 04:50:41;;;;;;;1.05;0.60;;;8.80;92.70;;;;;;5012448;28;20081;-71
2021/12/29 04:53:11;;;;;;;0.50;0.30;;;8.80;92.70;;;;;;5011485;28;20088;-71
2021/12/29 04:55:39;;;;;;;0.85;0.30;;;8.80;92.80;;;;;;5012158;28;20093;-72
2021/12/29 04:58:07;;;;;;;1.52;0.47;;;8.80;92.70;;;;;;5011915;28;20550;-71
2021/12/29 05:00:35;;;;;;;0.68;0.30;;;8.80;92.70;;;;;;5008662;28;20549;-72
2021/12/29 05:03:02;;;;;;;2.20;0.20;;;8.80;92.80;;;;;;5006594;28;20054;-71
2021/12/29 05:05:53;;;;;;;;;;;8.80;92.80;;;;;;5012187;28;20061;-71
2021/12/29 05:08:29;;;;;;;1.45;0.20;;;8.80;92.80;;;;;;5011610;28;19926;-71
2021/12/29 05:11:01;;;;;;;0.20;0.10;;;8.80;92.80;;;;;;5009204;28;20056;-72
2021/12/29 05:13:30;;;;;;;0.30;0.10;;;8.80;92.70;;;;;;5010659;28;20071;-71
2021/12/29 05:15:58;;;;;;;1.52;0.38;;;8.80;92.70;;;;;;5010938;28;20073;-71
2021/12/29 05:18:25;;;;;;;0.35;0.20;;;8.80;92.70;;;;;;5011028;28;20050;-72
2021/12/29 05:20:53;;;;;;;0.43;0.20;;;8.80;92.80;;;;;;5010506;28;20068;-72
2021/12/29 05:23:21;;;;;;;0.50;0.30;;;8.80;92.80;;;;;;5025764;28;20069;-71
2021/12/29 05:25:49;;;;;;;0.68;0.22;;;8.70;92.80;;;;;;5010131;28;20037;-72
2021/12/29 05:28:17;;;;;;;1.23;0.20;;;8.80;92.80;;;;;;5009373;28;20500;-73
2021/12/29 05:30:46;;;;;;;1.02;0.40;;;8.80;92.70;;;;;;5009938;28;20050;-72
2021/12/29 05:33:13;;;;;;;0.82;0.30;;;8.70;92.80;;;;;;5009809;28;20040;-74
2021/12/29 05:35:41;;;;;;;0.30;0.30;;;8.80;92.80;;;;;;5008731;28;20045;-73
2021/12/29 05:38:07;;;;;;;0.52;0.30;;;8.80;92.80;;;;;;5008338;28;20491;-71
2021/12/29 05:40:36;;;;;;;0.70;0.40;;;8.70;92.70;;;;;;5008159;28;20468;-71
2021/12/29 05:43:04;;;;;;;1.27;0.40;;;8.70;92.80;;;;;;5009135;28;20034;-71
2021/12/29 05:45:31;;;;;;;1.30;0.30;;;8.70;92.80;;;;;;5009083;28;20057;-72
2021/12/29 05:47:58;;;;;;;0.93;0.25;;;8.70;92.80;;;;;;5008708;28;20045;-72
2021/12/29 05:50:28;;;;;;;0.93;0.30;;;8.80;92.70;;;;;;5008684;28;20103;-71
2021/12/29 05:52:56;;;;;;;0.20;0.20;;;8.70;92.70;;;;;;5007315;28;20076;-71
2021/12/29 05:55:23;;;;;;;2.38;0.43;;;8.70;92.80;;;;;;5008392;28;20468;-71
2021/12/29 05:57:51;;;;;;;0.95;0.20;;;8.80;92.80;;;;;;5008956;28;20041;-72
2021/12/29 06:00:20;;;;;;;1.65;0.40;;;8.70;92.60;;;;;;5006353;28;20419;-72
2021/12/29 06:02:47;;;;;;;0.90;0.40;;;8.70;92.70;;;;;;5008299;28;20550;-72
2021/12/29 06:05:15;;;;;;;0.77;0.30;;;8.70;92.80;;;;;;5008583;28;20046;-71
2021/12/29 06:07:42;;;;;;;0.85;0.30;;;8.70;92.80;;;;;;5008600;28;20053;-73
2021/12/29 06:10:10;;;;;;;1.02;0.22;;;8.70;92.80;;;;;;5006833;28;20400;-72
2021/12/29 06:12:38;;;;;;;0.82;0.38;;;8.70;92.80;;;;;;5009485;28;20128;-71
2021/12/29 06:15:08;;;;;;;0.75;0.30;;;8.70;92.80;;;;;;5010813;28;20046;-71
2021/12/29 06:17:35;;;;;;;1.77;0.47;;;8.70;92.80;;;;;;5009832;28;20057;-70
2021/12/29 06:20:03;;;;;;;2.67;0.50;;;8.70;92.80;;;;;;5009332;28;20061;-71
2021/12/29 06:22:31;;;;;;;0.80;0.40;;;8.70;92.80;;;;;;5009638;28;20239;-72
2021/12/29 06:25:00;;;;;;;1.10;0.50;;;8.70;92.90;;;;;;5010080;28;20120;-72
2021/12/29 06:27:32;;;;;;;1.05;0.38;;;8.70;92.80;;;;;;5009043;28;20053;-71
2021/12/29 06:29:59;;;;;;;0.60;0.32;;;8.70;92.70;;;;;;5009333;28;20152;-72
2021/12/29 06:32:28;;;;;;;1.00;0.32;;;8.70;92.80;;;;;;5010271;28;20126;-71
2021/12/29 06:34:55;;;;;;;1.23;0.45;;;8.70;92.70;;;;;;5010614;28;20046;-72
2021/12/29 06:37:22;;;;;;;1.08;0.43;;;8.70;92.70;;;;;;5009055;28;20038;-71
2021/12/29 06:39:49;;;;;;;0.55;0.38;;;8.80;92.60;;;;;;5014406;28;20038;-71
2021/12/29 06:42:17;;;;;;;1.42;0.47;;;8.80;92.50;;;;;;5013593;28;20046;-72
2021/12/29 06:44:45;;;;;;;1.40;0.57;;;8.70;92.40;;;;;;5013933;28;20056;-72
2021/12/29 06:47:13;;;;;;;1.27;0.40;;;8.70;92.30;;;;;;5014367;28;20057;-71
2021/12/29 06:49:42;;;;;;;1.23;0.70;;;8.70;92.40;;;;;;5014047;28;20041;-71
2021/12/29 06:52:09;;;;;;;1.35;0.50;;;8.70;92.40;;;;;;5014489;28;20406;-72
2021/12/29 06:54:36;;;;;;;3.67;0.63;;;8.70;92.30;;;;;;5028818;28;20049;-71
2021/12/29 06:57:04;;;;;;;2.17;0.85;;;8.70;92.30;;;;;;5013906;28;20045;-71
2021/12/29 06:59:31;;;;;;;1.77;0.60;;;8.70;92.20;;;;;;5013220;28;20038;-71
2021/12/29 07:01:58;;;;;;;1.38;0.50;;;8.70;92.20;;;;;;5011603;28;20034;-71
2021/12/29 07:04:25;;;;;;;1.02;0.43;;;8.70;92.10;;;;;;5013699;28;20053;-71
2021/12/29 07:06:54;;;;;;;1.30;0.45;;;8.60;92.00;;;;;;5013647;28;20057;-71
2021/12/29 07:09:22;;;;;;;2.20;0.70;;;8.70;92.00;;;;;;5013627;28;20053;-71
2021/12/29 07:11:49;;;;;;;0.88;0.38;;;8.70;91.90;;;;;;5012859;28;20068;-71
2021/12/29 07:14:16;;;;;;;1.52;0.60;;;8.70;91.90;;;;;;5011891;28;20042;-72
2021/12/29 07:16:44;;;;;;;1.60;1.02;;;8.70;91.80;;;;;;5011543;28;20038;-71
2021/12/29 07:19:11;;;;;;;0.52;0.32;;;8.60;91.90;;;;;;5011445;28;20052;-71
2021/12/29 07:21:38;;;;;;;1.63;0.50;;;8.60;91.90;;;;;;5012651;28;20048;-71
2021/12/29 07:24:08;;;;;;;1.15;0.47;;;8.70;91.80;;;;;;5010787;28;22009;-71
2021/12/29 07:26:35;;;;;;;1.30;0.68;;;8.70;91.60;;;;;;5011073;28;20140;-71
2021/12/29 07:29:03;;;;;;;1.23;0.50;;;8.70;91.50;;;;;;5010564;28;20048;-73
2021/12/29 07:31:31;;;;;;;1.55;0.60;;;8.60;91.50;;;;;;5011049;28;20042;-71
2021/12/29 07:33:58;;;;;;;1.55;0.75;;;8.70;91.60;;;;;;5010292;28;20049;-72
2021/12/29 07:36:25;;;;;;;1.60;0.57;;;8.60;91.50;;;;;;5011445;28;20052;-71
2021/12/29 07:38:52;;;;;;;2.70;0.80;;;8.60;91.60;;;;;;5011433;28;20060;-71
2021/12/29 07:41:21;;;;;;;1.73;0.60;;;8.60;91.60;;;;;;5011009;28;20079;-71
2021/12/29 07:43:50;;;;;;;1.45;0.55;;;8.60;91.60;;;;;;5011101;28;20061;-72
2021/12/29 07:46:17;;;;;;;1.70;0.73;;;8.60;91.50;;;;;;5026184;28;20050;-71
2021/12/29 07:48:44;;;;;;;1.92;0.80;;;8.60;91.50;;;;;;5026665;28;20399;-73
2021/12/29 07:51:11;;;;;;;1.23;0.65;;;8.60;91.60;;;;;;5010706;28;20042;-72
2021/12/29 07:53:38;;;;;;;1.35;0.52;;;8.60;91.60;;;;;;5012718;28;20034;-72
2021/12/29 07:56:07;;;;;;;1.67;0.60;;;8.60;91.60;;;;;;5013619;28;20054;-72
2021/12/29 07:58:35;;;;;;;1.13;0.70;;;8.60;91.80;;;;;;5028516;28;20436;-72
2021/12/29 08:01:03;;;;;;;2.42;0.50;;;8.60;91.90;;;;;;5010671;28;20056;-71
2021/12/29 08:03:31;;;;;;;1.45;0.55;;;8.60;91.90;;;;;;5012100;28;20042;-72
2021/12/29 08:05:58;;;;;;;2.70;0.85;;;8.60;91.90;;;;;;5012335;28;20050;-73
2021/12/29 08:08:25;;;;;;;2.33;0.77;;;8.60;91.90;;;;;;5012570;28;20050;-71
2021/12/29 08:10:52;;;;;;;2.67;0.70;;;8.60;92.00;;;;;;5026463;28;20403;-71
2021/12/29 08:13:19;;;;;;;1.48;0.80;;;8.60;92.00;;;;;;5013025;28;20125;-71
2021/12/29 08:15:48;;;;;;;2.42;0.68;;;8.60;91.90;;;;;;5013233;28;20060;-71
2021/12/29 08:18:15;;;;;;;1.55;0.73;;;8.60;92.00;;;;;;5012386;28;20487;-71
2021/12/29 08:20:42;;;;;;;1.60;0.80;;;8.60;92.00;;;;;;5012397;28;20042;-72
2021/12/29 08:23:10;;;;;;;1.70;0.63;;;8.60;92.00;;;;;;5012482;28;20050;-71
2021/12/29 08:25:38;;;;;;;2.95;0.85;;;8.60;92.00;;;;;;5012208;28;20050;-73
2021/12/29 08:28:05;;;;;;;1.90;0.77;;;8.60;92.00;;;;;;5011834;28;20046;-73
2021/12/29 08:30:33;;;;;;;2.35;0.98;;;8.60;92.00;;;;;;5011804;28;20057;-71
2021/12/29 08:33:02;;;;;;;3.42;1.30;;;8.70;92.00;;;;;;5012348;28;20042;-71
2021/12/29 08:35:32;;;;;;;2.88;0.93;;;8.70;92.00;;;;;;5010709;28;20145;-70
2021/12/29 08:37:59;;;;;;;2.85;0.80;;;8.70;92.00;;;;;;5011558;28;20496;-72
2021/12/29 08:40:27;;;;;;;1.35;0.70;;;8.70;92.10;;;;;;5012028;28;20140;-72
2021/12/29 08:42:57;;;;;;;2.53;0.90;;;8.70;92.10;;;;;;5012893;28;20050;-71
2021/12/29 08:45:26;;;;;;;2.38;0.82;;;8.70;92.00;;;;;;5012667;28;20050;-72
2021/12/29 08:47:55;;;;;;;1.75;0.88;;;8.80;92.00;;;;;;5011603;28;20081;-72
2021/12/29 08:50:25;;;;;;;1.42;0.80;;;8.70;91.80;;;;;;5011773;28;20050;-71
2021/12/29 08:52:52;;;;;;;1.60;0.77;;;8.70;91.80;;;;;;5009725;28;20048;-73
2021/12/29 08:55:19;;;;;;;3.95;0.95;;;8.70;91.80;;;;;;5010228;28;20053;-72
2021/12/29 08:57:46;;;;;;;2.45;1.10;;;8.70;91.90;;;;;;5009465;28;20104;-72
2021/12/29 09:00:16;;;;;;;1.40;0.68;;;8.70;91.90;;;;;;5007890;28;20046;-72
2021/12/29 09:02:44;;;;;;;2.53;0.88;;;8.70;91.80;;;;;;5009386;28;20120;-73
2021/12/29 09:05:12;;;;;;;2.17;1.02;;;8.80;91.90;;;;;;5009952;28;20053;-71
2021/12/29 09:07:41;;;;;;;10.10;3.60;;;8.80;91.90;;;;;;5009664;28;20358;-73
2021/12/29 09:10:09;;;;;;;21.75;11.35;;;8.70;91.70;;;;;;5009493;28;20058;-71
2021/12/29 09:12:36;;;;;;;19.33;8.60;;;8.70;91.80;;;;;;5009274;28;20062;-72
2021/12/29 09:15:05;;;;;;;15.25;6.38;;;8.80;91.80;;;;;;5009838;28;20124;-72
2021/12/29 09:17:32;;;;;;;16.40;8.23;;;8.80;91.70;;;;;;5008524;28;20381;-72
2021/12/29 09:20:01;;;;;;;11.70;6.50;;;8.80;91.70;;;;;;5008979;28;20046;-71
2021/12/29 09:22:34;;;;;;;12.85;9.10;;;8.80;91.60;;;;;;5008602;28;20048;-71
2021/12/29 09:25:02;;;;;;;10.20;6.70;;;8.80;91.50;;;;;;5008362;28;20076;-71
2021/12/29 09:27:29;;;;;;;6.60;3.78;;;8.80;91.60;;;;;;5009313;28;20045;-72
2021/12/29 09:29:56;;;;;;;7.65;4.03;;;8.80;91.80;;;;;;5008995;28;20113;-71
2021/12/29 09:32:24;;;;;;;5.53;2.40;;;8.90;91.60;;;;;;5009707;28;20041;-72
2021/12/29 09:34:51;;;;;;;5.05;2.38;;;8.90;91.60;;;;;;5010308;28;20133;-72
2021/12/29 09:37:18;;;;;;;4.50;2.20;;;8.90;91.70;;;;;;5010795;28;20108;-71
2021/12/29 09:39:45;;;;;;;3.95;1.85;;;8.90;91.50;;;;;;5010403;28;20523;-71
2021/12/29 09:42:13;;;;;;;4.25;1.88;;;8.90;91.40;;;;;;5010197;28;20073;-71
2021/12/29 09:44:40;;;;;;;4.47;2.22;;;8.90;91.50;;;;;;5011134;28;20057;-71
2021/12/29 09:47:08;;;;;;;6.78;2.78;;;9.00;91.50;;;;;;5011202;28;20050;-71
2021/12/29 09:49:43;;;;;;;5.10;2.22;;;8.90;91.50;;;;;;5011591;28;20053;-71
2021/12/29 09:52:10;;;;;;;4.63;2.40;;;8.90;91.50;;;;;;5008727;28;20425;-72
2021/12/29 09:54:37;;;;;;;5.70;2.50;;;9.00;91.50;;;;;;5011190;28;20063;-73
2021/12/29 09:57:04;;;;;;;4.80;2.33;;;9.00;91.50;;;;;;5009966;28;20153;-72
2021/12/29 09:59:40;;;;;;;6.05;2.58;;;9.00;91.50;;;;;;5010441;28;20042;-70
2021/12/29 10:02:07;;;;;;;4.97;2.33;;;9.00;91.50;;;;;;5007502;28;20053;-72
2021/12/29 10:04:36;;;;;;;4.20;1.33;;;9.10;91.50;;;;;;5025837;28;20042;-71
2021/12/29 10:07:13;;;;;;;4.60;1.63;;;9.00;91.40;;;;;;5011126;28;20519;-72
2021/12/29 10:09:40;;;;;;;2.15;1.00;;;9.10;91.40;;;;;;5009594;28;20046;-71
2021/12/29 10:12:17;;;;;;;5.63;0.88;;;9.10;91.40;;;;;;5011453;28;20132;-72
2021/12/29 10:14:50;;;;;;;4.93;1.55;;;9.10;91.40;;;;;;5010674;28;20041;-72
2021/12/29 10:17:17;;;;;;;4.55;1.50;;;9.10;91.30;;;;;;5010414;28;20411;-71
2021/12/29 10:19:45;;;;;;;3.42;1.50;;;9.10;91.40;;;;;;5007538;28;20424;-71
2021/12/29 10:22:21;;;;;;;3.60;1.80;;;9.10;91.40;;;;;;5009267;28;20048;-71
2021/12/29 10:24:48;;;;;;;3.38;1.15;;;9.10;91.30;;;;;;5009574;28;20564;-70
2021/12/29 10:27:19;;;;;;;5.50;1.75;;;9.10;91.30;;;;;;5008575;28;20128;-71
2021/12/29 10:29:48;;;;;;;3.33;1.63;;;9.20;91.30;;;;;;5009457;28;20061;-72
2021/12/29 10:32:23;;;;;;;3.60;1.65;;;9.10;91.30;;;;;;5008698;28;20053;-72
2021/12/29 10:34:51;;;;;;;5.28;1.30;;;9.20;91.20;;;;;;5007868;28;20096;-72
2021/12/29 10:37:20;;;;;;;2.40;1.10;;;9.20;91.30;;;;;;5007550;28;20050;-71
2021/12/29 10:39:49;;;;;;;3.53;1.02;;;9.20;91.20;;;;;;5007016;28;20072;-71
2021/12/29 10:42:19;;;;;;;4.43;1.30;;;9.20;91.20;;;;;;5008839;28;20038;-71
2021/12/29 10:44:50;;;;;;;4.60;1.67;;;9.20;91.20;;;;;;5007097;28;20042;-72
2021/12/29 10:47:19;;;;;;;1.77;0.90;;;9.20;91.10;;;;;;5007185;28;20052;-72
2021/12/29 10:49:52;;;;;;;4.30;1.63;;;9.30;91.00;;;;;;5007998;28;20042;-72
2021/12/29 10:52:30;;;;;;;3.55;1.00;;;9.20;90.90;;;;;;5007258;28;20077;-73
2021/12/29 10:54:57;;;;;;;4.82;1.40;;;9.20;90.90;;;;;;5007816;28;20038;-71
2021/12/29 10:57:24;;;;;;;3.95;1.13;;;9.30;90.90;;;;;;5007618;28;20131;-73
2021/12/29 10:59:58;;;;;;;2.47;1.00;;;9.30;90.80;;;;;;5023501;28;20427;-71
2021/12/29 11:02:28;;;;;;;2.33;1.10;;;9.30;90.70;;;;;;5021121;28;20077;-71
2021/12/29 11:04:57;;;;;;;1.55;0.90;;;9.30;90.70;;;;;;5007491;28;20038;-71
2021/12/29 11:07:28;;;;;;;3.00;1.10;;;9.30;90.80;;;;;;5008402;28;20151;-71
2021/12/29 11:09:56;;;;;;;1.73;0.88;;;9.30;90.70;;;;;;5008220;28;20140;-70
2021/12/29 11:12:25;;;;;;;3.10;1.30;;;9.30;90.80;;;;;;5009615;28;20057;-72
2021/12/29 11:14:54;;;;;;;3.60;1.52;;;9.30;90.80;;;;;;5008818;28;20381;-72
2021/12/29 11:17:23;;;;;;;3.20;1.10;;;9.30;90.80;;;;;;5010074;28;20054;-71
2021/12/29 11:19:53;;;;;;;3.50;1.08;;;9.30;90.80;;;;;;5009034;28;20050;-71
2021/12/29 11:22:22;;;;;;;3.78;1.10;;;9.40;90.80;;;;;;5009034;28;20494;-71
2021/12/29 11:24:56;;;;;;;1.88;0.88;;;9.40;90.70;;;;;;5010818;28;20045;-71
2021/12/29 11:27:23;;;;;;;3.92;1.08;;;9.40;90.60;;;;;;5013255;28;20509;-72
2021/12/29 11:29:54;;;;;;;2.97;0.80;;;9.40;90.60;;;;;;5014031;28;20069;-72
2021/12/29 11:32:28;;;;;;;1.60;0.70;;;9.40;90.50;;;;;;5013626;28;20053;-72
2021/12/29 11:35:09;;;;;;;1.83;1.10;;;9.50;90.50;;;;;;5013409;28;20041;-71
2021/12/29 11:37:38;;;;;;;3.65;0.80;;;9.50;90.40;;;;;;5013666;28;20116;-72
2021/12/29 11:40:07;;;;;;;2.28;1.08;;;9.50;90.50;;;;;;5013955;28;20069;-71
2021/12/29 11:42:34;;;;;;;5.07;0.85;;;9.60;90.30;;;;;;5012450;28;20515;-71
2021/12/29 11:45:04;;;;;;;2.30;0.68;;;9.60;90.20;;;;;;5012860;28;20072;-71
2021/12/29 11:47:31;;;;;;;3.10;1.05;;;9.60;90.20;;;;;;5013639;28;20476;-71
2021/12/29 11:49:58;;;;;;;2.53;0.75;;;9.60;90.10;;;;;;5012119;28;20038;-72
2021/12/29 11:52:46;;;;;;;2.45;0.68;;;9.70;89.90;;;;;;5011492;28;20046;-73
2021/12/29 11:55:16;;;;;;;2.28;0.98;;;9.70;89.90;;;;;;5013286;28;20052;-71
2021/12/29 11:57:44;;;;;;;5.28;1.15;;;9.70;89.80;;;;;;5012304;28;20042;-73
2021/12/29 12:00:17;;;;;;;3.83;1.10;;;9.70;89.70;;;;;;5010253;28;20050;-73
2021/12/29 12:02:45;;;;;;;3.33;0.82;;;9.70;89.90;;;;;;5011458;28;20045;-71
2021/12/29 12:05:13;;;;;;;3.03;0.90;;;9.70;89.70;;;;;;5013442;28;20042;-72
2021/12/29 12:07:42;;;;;;;3.55;1.00;;;9.70;89.70;;;;;;5012164;28;20476;-71
2021/12/29 12:10:14;;;;;;;2.72;1.17;;;9.70;89.60;;;;;;5012740;28;20120;-71
2021/12/29 12:12:44;;;;;;;5.97;0.88;;;9.70;89.60;;;;;;5010917;28;20125;-72
2021/12/29 12:15:13;;;;;;;2.05;0.90;;;9.80;89.60;;;;;;5010211;28;20073;-72
2021/12/29 12:17:41;;;;;;;7.63;1.05;;;9.80;89.50;;;;;;5011124;28;20045;-71
2021/12/29 12:20:12;;;;;;;2.10;0.80;;;9.80;89.30;;;;;;5010260;28;20054;-73
2021/12/29 12:22:43;;;;;;;;;;;9.80;89.30;;;;;;5010360;28;20042;-71
2021/12/29 12:25:10;;;;;;;2.50;0.80;;;9.80;89.50;;;;;;5009174;28;20413;-72
2021/12/29 12:27:40;;;;;;;2.35;0.90;;;9.80;89.30;;;;;;5010762;28;20042;-71
2021/12/29 12:30:10;;;;;;;3.50;1.10;;;9.80;89.20;;;;;;5010998;28;20049;-71
2021/12/29 12:32:44;;;;;;;2.17;0.90;;;9.80;89.20;;;;;;5009863;28;20045;-72
2021/12/29 12:35:14;;;;;;;3.53;1.02;;;9.80;89.00;;;;;;5010008;28;20073;-71
2021/12/29 12:37:45;;;;;;;1.33;0.60;;;9.80;89.00;;;;;;5009462;28;20627;-71
2021/12/29 12:40:14;;;;;;;2.63;0.70;;;9.70;88.90;;;;;;5010510;28;20042;-72
2021/12/29 12:42:42;;;;;;;4.65;1.08;;;9.70;88.90;;;;;;5009802;28;20050;-72
2021/12/29 12:45:22;;;;;;;2.30;0.80;;;9.80;89.00;;;;;;5025821;28;20057;-72
2021/12/29 12:48:01;;;;;;;4.32;1.20;;;9.70;88.80;;;;;;5010676;28;20053;-71
2021/12/29 12:50:29;;;;;;;7.57;1.10;;;9.70;89.00;;;;;;5009340;28;20125;-72
2021/12/29 12:52:57;;;;;;;3.15;1.00;;;9.70;88.90;;;;;;5011867;28;20523;-71
2021/12/29 12:55:25;;;;;;;3.53;0.90;;;9.80;88.90;;;;;;5011770;28;20125;-72
2021/12/29 12:57:53;;;;;;;2.25;1.42;;;9.70;88.90;;;;;;5011806;28;20045;-71
2021/12/29 13:00:22;;;;;;;2.22;0.77;;;9.70;88.70;;;;;;5008619;28;20096;-72
2021/12/29 13:02:56;;;;;;;1.55;0.70;;;9.70;88.70;;;;;;5011821;28;20042;-71
2021/12/29 13:05:26;;;;;;;4.35;1.80;;;9.70;88.70;;;;;;5012117;28;20049;-71
2021/12/29 13:08:05;;;;;;;1.40;0.60;;;9.70;88.80;;;;;;5010698;28;20069;-72